sensor_id;sensor_type;location;lat;lon;timestamp;P1;durP1;ratioP1;P2;durP2;ratioP2
77012;SDS011;67260;53.130;17.982;2023-07-24T00:00:25;6.40;;;3.80;;
77012;SDS011;67260;53.130;17.982;2023-07-24T00:03:11;11.20;;;4.50;;
77012;SDS011;67260;53.130;17.982;2023-07-24T00:05:39;8.30;;;4.30;;
77012;SDS011;67260;53.130;17.982;2023-07-24T00:08:05;9.20;;;4.30;;
77012;SDS011;67260;53.130;17.982;2023-07-24T00:10:32;7.70;;;4.00;;
77012;SDS011;67260;53.130;17.982;2023-07-24T00:12:58;9.70;;;4.00;;
77012;SDS011;67260;53.130;17.982;2023-07-24T00:15:24;9.40;;;3.90;;
77012;SDS011;67260;53.130;17.982;2023-07-24T00:17:51;7.00;;;4.10;;
77012;SDS011;67260;53.130;17.982;2023-07-24T00:20:17;7.90;;;4.00;;
77012;SDS011;67260;53.130;17.982;2023-07-24T00:22:43;7.90;;;4.00;;
77012;SDS011;67260;53.130;17.982;2023-07-24T00:25:08;6.60;;;3.90;;
77012;SDS011;67260;53.130;17.982;2023-07-24T00:27:34;9.20;;;3.70;;
77012;SDS011;67260;53.130;17.982;2023-07-24T00:30:01;6.80;;;3.90;;
77012;SDS011;67260;53.130;17.982;2023-07-24T00:32:27;7.20;;;3.80;;
77012;SDS011;67260;53.130;17.982;2023-07-24T00:34:55;7.10;;;3.50;;
77012;SDS011;67260;53.130;17.982;2023-07-24T00:37:23;6.60;;;3.50;;
77012;SDS011;67260;53.130;17.982;2023-07-24T00:39:53;6.80;;;3.50;;
77012;SDS011;67260;53.130;17.982;2023-07-24T00:42:19;7.20;;;3.80;;
77012;SDS011;67260;53.130;17.982;2023-07-24T00:44:47;10.70;;;3.80;;
77012;SDS011;67260;53.130;17.982;2023-07-24T00:47:13;6.60;;;3.30;;
77012;SDS011;67260;53.130;17.982;2023-07-24T00:49:40;6.30;;;3.50;;
77012;SDS011;67260;53.130;17.982;2023-07-24T00:52:06;6.90;;;3.90;;
77012;SDS011;67260;53.130;17.982;2023-07-24T00:54:33;6.70;;;3.50;;
77012;SDS011;67260;53.130;17.982;2023-07-24T00:57:00;6.00;;;3.50;;
77012;SDS011;67260;53.130;17.982;2023-07-24T00:59:29;8.10;;;3.50;;
77012;SDS011;67260;53.130;17.982;2023-07-24T01:01:55;7.50;;;3.60;;
77012;SDS011;67260;53.130;17.982;2023-07-24T01:04:21;7.20;;;3.70;;
77012;SDS011;67260;53.130;17.982;2023-07-24T01:06:48;7.30;;;3.80;;
77012;SDS011;67260;53.130;17.982;2023-07-24T01:09:18;6.70;;;3.70;;
77012;SDS011;67260;53.130;17.982;2023-07-24T01:11:54;6.30;;;3.50;;
77012;SDS011;67260;53.130;17.982;2023-07-24T01:17:14;6.40;;;3.80;;
77012;SDS011;67260;53.130;17.982;2023-07-24T01:19:46;7.80;;;3.90;;
77012;SDS011;67260;53.130;17.982;2023-07-24T01:22:20;7.50;;;3.90;;
77012;SDS011;67260;53.130;17.982;2023-07-24T01:25:00;7.70;;;4.30;;
77012;SDS011;67260;53.130;17.982;2023-07-24T01:27:28;8.20;;;4.10;;
77012;SDS011;67260;53.130;17.982;2023-07-24T01:29:56;6.90;;;4.20;;
77012;SDS011;67260;53.130;17.982;2023-07-24T01:32:33;8.20;;;3.80;;
77012;SDS011;67260;53.130;17.982;2023-07-24T01:35:10;6.30;;;3.70;;
77012;SDS011;67260;53.130;17.982;2023-07-24T01:37:37;7.70;;;4.40;;
77012;SDS011;67260;53.130;17.982;2023-07-24T01:40:06;7.00;;;3.70;;
77012;SDS011;67260;53.130;17.982;2023-07-24T01:43:04;6.20;;;3.70;;
77012;SDS011;67260;53.130;17.982;2023-07-24T01:45:30;8.10;;;4.00;;
77012;SDS011;67260;53.130;17.982;2023-07-24T01:47:57;7.30;;;3.40;;
77012;SDS011;67260;53.130;17.982;2023-07-24T01:50:26;6.80;;;3.70;;
77012;SDS011;67260;53.130;17.982;2023-07-24T01:52:54;5.90;;;3.60;;
77012;SDS011;67260;53.130;17.982;2023-07-24T01:55:21;8.10;;;3.60;;
77012;SDS011;67260;53.130;17.982;2023-07-24T01:57:47;5.90;;;3.50;;
77012;SDS011;67260;53.130;17.982;2023-07-24T02:00:21;6.50;;;3.50;;
77012;SDS011;67260;53.130;17.982;2023-07-24T02:03:01;8.60;;;3.80;;
77012;SDS011;67260;53.130;17.982;2023-07-24T02:05:27;8.40;;;3.80;;
77012;SDS011;67260;53.130;17.982;2023-07-24T02:07:53;6.30;;;3.60;;
77012;SDS011;67260;53.130;17.982;2023-07-24T02:10:19;7.50;;;4.20;;
77012;SDS011;67260;53.130;17.982;2023-07-24T02:12:47;7.10;;;4.00;;
77012;SDS011;67260;53.130;17.982;2023-07-24T02:15:13;9.70;;;4.10;;
77012;SDS011;67260;53.130;17.982;2023-07-24T02:17:41;9.10;;;3.80;;
77012;SDS011;67260;53.130;17.982;2023-07-24T02:20:08;7.70;;;3.50;;
77012;SDS011;67260;53.130;17.982;2023-07-24T02:22:34;7.10;;;3.50;;
77012;SDS011;67260;53.130;17.982;2023-07-24T02:25:01;7.50;;;4.50;;
77012;SDS011;67260;53.130;17.982;2023-07-24T02:27:28;9.80;;;4.10;;
77012;SDS011;67260;53.130;17.982;2023-07-24T02:29:59;8.50;;;4.20;;
77012;SDS011;67260;53.130;17.982;2023-07-24T02:32:26;9.80;;;4.30;;
77012;SDS011;67260;53.130;17.982;2023-07-24T02:34:52;8.50;;;4.10;;
77012;SDS011;67260;53.130;17.982;2023-07-24T02:37:19;9.50;;;4.40;;
77012;SDS011;67260;53.130;17.982;2023-07-24T02:39:45;9.20;;;4.10;;
77012;SDS011;67260;53.130;17.982;2023-07-24T02:42:12;8.30;;;3.80;;
77012;SDS011;67260;53.130;17.982;2023-07-24T02:44:37;9.20;;;4.20;;
77012;SDS011;67260;53.130;17.982;2023-07-24T02:47:04;7.40;;;3.70;;
77012;SDS011;67260;53.130;17.982;2023-07-24T02:51:56;6.40;;;3.70;;
77012;SDS011;67260;53.130;17.982;2023-07-24T02:54:22;7.50;;;3.90;;
77012;SDS011;67260;53.130;17.982;2023-07-24T02:56:48;8.10;;;3.60;;
77012;SDS011;67260;53.130;17.982;2023-07-24T02:59:14;8.00;;;3.90;;
77012;SDS011;67260;53.130;17.982;2023-07-24T03:01:42;7.50;;;3.70;;
77012;SDS011;67260;53.130;17.982;2023-07-24T03:04:08;6.30;;;3.10;;
77012;SDS011;67260;53.130;17.982;2023-07-24T03:06:34;7.20;;;3.40;;
77012;SDS011;67260;53.130;17.982;2023-07-24T03:09:00;7.90;;;3.10;;
77012;SDS011;67260;53.130;17.982;2023-07-24T03:11:26;5.30;;;3.00;;
77012;SDS011;67260;53.130;17.982;2023-07-24T03:13:52;6.20;;;3.00;;
77012;SDS011;67260;53.130;17.982;2023-07-24T03:16:18;5.30;;;3.00;;
77012;SDS011;67260;53.130;17.982;2023-07-24T03:18:46;6.60;;;2.80;;
77012;SDS011;67260;53.130;17.982;2023-07-24T03:21:13;5.80;;;3.30;;
77012;SDS011;67260;53.130;17.982;2023-07-24T03:23:39;6.30;;;3.20;;
77012;SDS011;67260;53.130;17.982;2023-07-24T03:26:05;6.10;;;3.20;;
77012;SDS011;67260;53.130;17.982;2023-07-24T03:28:31;6.50;;;3.20;;
77012;SDS011;67260;53.130;17.982;2023-07-24T03:30:57;7.30;;;3.30;;
77012;SDS011;67260;53.130;17.982;2023-07-24T03:33:23;7.70;;;3.10;;
77012;SDS011;67260;53.130;17.982;2023-07-24T03:35:50;6.50;;;3.00;;
77012;SDS011;67260;53.130;17.982;2023-07-24T03:38:18;8.00;;;3.40;;
77012;SDS011;67260;53.130;17.982;2023-07-24T03:40:44;4.90;;;2.60;;
77012;SDS011;67260;53.130;17.982;2023-07-24T03:43:10;6.30;;;2.90;;
77012;SDS011;67260;53.130;17.982;2023-07-24T03:45:37;5.90;;;3.00;;
77012;SDS011;67260;53.130;17.982;2023-07-24T03:48:03;5.40;;;2.90;;
77012;SDS011;67260;53.130;17.982;2023-07-24T03:50:29;7.60;;;3.40;;
77012;SDS011;67260;53.130;17.982;2023-07-24T03:52:55;6.40;;;2.90;;
77012;SDS011;67260;53.130;17.982;2023-07-24T03:55:21;6.30;;;3.20;;
77012;SDS011;67260;53.130;17.982;2023-07-24T03:57:47;5.00;;;3.10;;
77012;SDS011;67260;53.130;17.982;2023-07-24T04:00:13;7.30;;;3.20;;
77012;SDS011;67260;53.130;17.982;2023-07-24T04:02:39;6.00;;;3.10;;
77012;SDS011;67260;53.130;17.982;2023-07-24T04:07:37;5.80;;;2.70;;
77012;SDS011;67260;53.130;17.982;2023-07-24T04:10:06;7.40;;;2.80;;
77012;SDS011;67260;53.130;17.982;2023-07-24T04:12:37;6.80;;;2.80;;
77012;SDS011;67260;53.130;17.982;2023-07-24T04:15:03;5.40;;;2.70;;
77012;SDS011;67260;53.130;17.982;2023-07-24T04:17:29;6.00;;;3.20;;
77012;SDS011;67260;53.130;17.982;2023-07-24T04:22:24;6.20;;;2.90;;
77012;SDS011;67260;53.130;17.982;2023-07-24T04:24:57;5.80;;;3.20;;
77012;SDS011;67260;53.130;17.982;2023-07-24T04:27:23;6.90;;;3.20;;
77012;SDS011;67260;53.130;17.982;2023-07-24T04:29:50;6.90;;;2.90;;
77012;SDS011;67260;53.130;17.982;2023-07-24T04:32:19;5.30;;;2.70;;
77012;SDS011;67260;53.130;17.982;2023-07-24T04:34:51;5.30;;;2.60;;
77012;SDS011;67260;53.130;17.982;2023-07-24T04:37:17;5.60;;;2.70;;
77012;SDS011;67260;53.130;17.982;2023-07-24T04:39:43;6.30;;;3.00;;
77012;SDS011;67260;53.130;17.982;2023-07-24T04:42:10;6.50;;;2.80;;
77012;SDS011;67260;53.130;17.982;2023-07-24T04:47:17;6.70;;;2.90;;
77012;SDS011;67260;53.130;17.982;2023-07-24T04:49:43;5.40;;;2.80;;
77012;SDS011;67260;53.130;17.982;2023-07-24T04:52:12;9.80;;;2.90;;
77012;SDS011;67260;53.130;17.982;2023-07-24T04:54:44;5.90;;;2.60;;
77012;SDS011;67260;53.130;17.982;2023-07-24T04:57:10;5.80;;;2.80;;
77012;SDS011;67260;53.130;17.982;2023-07-24T04:59:39;6.30;;;2.60;;
77012;SDS011;67260;53.130;17.982;2023-07-24T05:02:09;4.90;;;2.80;;
77012;SDS011;67260;53.130;17.982;2023-07-24T05:04:34;5.40;;;2.70;;
77012;SDS011;67260;53.130;17.982;2023-07-24T05:07:00;7.50;;;2.80;;
77012;SDS011;67260;53.130;17.982;2023-07-24T05:09:26;7.30;;;2.80;;
77012;SDS011;67260;53.130;17.982;2023-07-24T05:11:52;6.20;;;2.80;;
77012;SDS011;67260;53.130;17.982;2023-07-24T05:14:20;6.00;;;2.70;;
77012;SDS011;67260;53.130;17.982;2023-07-24T05:16:46;5.50;;;2.50;;
77012;SDS011;67260;53.130;17.982;2023-07-24T05:19:12;7.10;;;2.90;;
77012;SDS011;67260;53.130;17.982;2023-07-24T05:21:38;7.50;;;2.40;;
77012;SDS011;67260;53.130;17.982;2023-07-24T05:24:06;8.00;;;3.00;;
77012;SDS011;67260;53.130;17.982;2023-07-24T05:26:31;6.00;;;2.80;;
77012;SDS011;67260;53.130;17.982;2023-07-24T05:28:57;5.40;;;2.70;;
77012;SDS011;67260;53.130;17.982;2023-07-24T05:31:23;5.30;;;2.40;;
77012;SDS011;67260;53.130;17.982;2023-07-24T05:33:49;5.60;;;2.80;;
77012;SDS011;67260;53.130;17.982;2023-07-24T05:36:15;8.90;;;2.70;;
77012;SDS011;67260;53.130;17.982;2023-07-24T05:38:41;6.30;;;2.70;;
77012;SDS011;67260;53.130;17.982;2023-07-24T05:41:07;3.90;;;1.80;;
77012;SDS011;67260;53.130;17.982;2023-07-24T05:43:33;5.10;;;2.50;;
77012;SDS011;67260;53.130;17.982;2023-07-24T05:45:59;5.80;;;2.60;;
77012;SDS011;67260;53.130;17.982;2023-07-24T05:48:25;5.50;;;2.60;;
77012;SDS011;67260;53.130;17.982;2023-07-24T05:50:51;5.50;;;2.60;;
77012;SDS011;67260;53.130;17.982;2023-07-24T05:53:18;7.80;;;2.90;;
77012;SDS011;67260;53.130;17.982;2023-07-24T05:55:44;7.10;;;2.70;;
77012;SDS011;67260;53.130;17.982;2023-07-24T05:58:10;7.70;;;2.60;;
77012;SDS011;67260;53.130;17.982;2023-07-24T06:03:03;6.60;;;2.70;;
77012;SDS011;67260;53.130;17.982;2023-07-24T06:05:29;5.90;;;2.40;;
77012;SDS011;67260;53.130;17.982;2023-07-24T06:07:55;7.60;;;2.80;;
77012;SDS011;67260;53.130;17.982;2023-07-24T06:10:21;7.50;;;2.90;;
77012;SDS011;67260;53.130;17.982;2023-07-24T06:12:47;4.50;;;2.40;;
77012;SDS011;67260;53.130;17.982;2023-07-24T06:15:13;5.60;;;2.50;;
77012;SDS011;67260;53.130;17.982;2023-07-24T06:17:39;9.00;;;2.70;;
77012;SDS011;67260;53.130;17.982;2023-07-24T06:20:06;6.30;;;2.90;;
77012;SDS011;67260;53.130;17.982;2023-07-24T06:22:32;4.40;;;2.40;;
77012;SDS011;67260;53.130;17.982;2023-07-24T06:24:59;4.70;;;2.60;;
77012;SDS011;67260;53.130;17.982;2023-07-24T06:27:25;7.60;;;2.70;;
77012;SDS011;67260;53.130;17.982;2023-07-24T06:29:56;4.80;;;2.50;;
77012;SDS011;67260;53.130;17.982;2023-07-24T06:32:23;5.40;;;2.80;;
77012;SDS011;67260;53.130;17.982;2023-07-24T06:34:51;6.30;;;3.00;;
77012;SDS011;67260;53.130;17.982;2023-07-24T06:37:18;5.10;;;2.70;;
77012;SDS011;67260;53.130;17.982;2023-07-24T06:40:01;6.90;;;2.90;;
77012;SDS011;67260;53.130;17.982;2023-07-24T06:42:30;5.50;;;2.70;;
77012;SDS011;67260;53.130;17.982;2023-07-24T06:44:56;6.80;;;3.10;;
77012;SDS011;67260;53.130;17.982;2023-07-24T06:47:35;5.40;;;2.80;;
77012;SDS011;67260;53.130;17.982;2023-07-24T06:50:02;5.90;;;2.90;;
77012;SDS011;67260;53.130;17.982;2023-07-24T06:52:31;5.40;;;3.00;;
77012;SDS011;67260;53.130;17.982;2023-07-24T06:54:58;6.30;;;3.10;;
77012;SDS011;67260;53.130;17.982;2023-07-24T06:57:24;6.60;;;3.00;;
77012;SDS011;67260;53.130;17.982;2023-07-24T07:02:20;6.50;;;3.00;;
77012;SDS011;67260;53.130;17.982;2023-07-24T07:04:54;7.20;;;2.60;;
77012;SDS011;67260;53.130;17.982;2023-07-24T07:07:21;5.20;;;2.60;;
77012;SDS011;67260;53.130;17.982;2023-07-24T07:09:49;7.00;;;3.30;;
77012;SDS011;67260;53.130;17.982;2023-07-24T07:14:41;6.90;;;2.80;;
77012;SDS011;67260;53.130;17.982;2023-07-24T07:17:07;4.90;;;2.70;;
77012;SDS011;67260;53.130;17.982;2023-07-24T07:19:33;5.10;;;2.70;;
77012;SDS011;67260;53.130;17.982;2023-07-24T07:22:08;7.30;;;3.10;;
77012;SDS011;67260;53.130;17.982;2023-07-24T07:24:33;10.40;;;5.30;;
77012;SDS011;67260;53.130;17.982;2023-07-24T07:29:28;6.20;;;3.70;;
77012;SDS011;67260;53.130;17.982;2023-07-24T07:32:14;7.70;;;3.10;;
77012;SDS011;67260;53.130;17.982;2023-07-24T07:34:58;5.00;;;2.70;;
77012;SDS011;67260;53.130;17.982;2023-07-24T07:37:24;5.70;;;2.60;;
77012;SDS011;67260;53.130;17.982;2023-07-24T07:39:51;4.80;;;2.50;;
77012;SDS011;67260;53.130;17.982;2023-07-24T07:42:18;6.10;;;2.60;;
77012;SDS011;67260;53.130;17.982;2023-07-24T07:44:45;6.60;;;2.90;;
77012;SDS011;67260;53.130;17.982;2023-07-24T07:47:15;6.80;;;2.90;;
77012;SDS011;67260;53.130;17.982;2023-07-24T07:49:48;5.20;;;2.50;;
77012;SDS011;67260;53.130;17.982;2023-07-24T07:52:21;5.60;;;2.60;;
77012;SDS011;67260;53.130;17.982;2023-07-24T07:54:48;4.60;;;2.40;;
77012;SDS011;67260;53.130;17.982;2023-07-24T07:57:26;4.60;;;2.90;;
77012;SDS011;67260;53.130;17.982;2023-07-24T08:00:05;5.90;;;2.80;;
77012;SDS011;67260;53.130;17.982;2023-07-24T08:02:48;6.50;;;2.70;;
77012;SDS011;67260;53.130;17.982;2023-07-24T08:05:15;5.50;;;2.60;;
77012;SDS011;67260;53.130;17.982;2023-07-24T08:07:53;5.30;;;2.70;;
77012;SDS011;67260;53.130;17.982;2023-07-24T08:10:20;3.90;;;2.30;;
77012;SDS011;67260;53.130;17.982;2023-07-24T08:12:52;5.40;;;2.70;;
77012;SDS011;67260;53.130;17.982;2023-07-24T08:15:44;4.10;;;2.40;;
77012;SDS011;67260;53.130;17.982;2023-07-24T08:18:16;3.60;;;2.30;;
77012;SDS011;67260;53.130;17.982;2023-07-24T08:20:42;3.90;;;2.10;;
77012;SDS011;67260;53.130;17.982;2023-07-24T08:23:09;4.30;;;2.00;;
77012;SDS011;67260;53.130;17.982;2023-07-24T08:25:35;4.20;;;2.30;;
77012;SDS011;67260;53.130;17.982;2023-07-24T08:28:02;3.40;;;2.00;;
77012;SDS011;67260;53.130;17.982;2023-07-24T08:30:37;3.60;;;2.00;;
77012;SDS011;67260;53.130;17.982;2023-07-24T08:33:12;4.20;;;2.20;;
77012;SDS011;67260;53.130;17.982;2023-07-24T08:35:47;4.00;;;1.90;;
77012;SDS011;67260;53.130;17.982;2023-07-24T08:38:23;3.50;;;2.00;;
77012;SDS011;67260;53.130;17.982;2023-07-24T08:43:30;4.10;;;2.20;;
77012;SDS011;67260;53.130;17.982;2023-07-24T08:46:12;3.80;;;1.90;;
77012;SDS011;67260;53.130;17.982;2023-07-24T08:48:44;6.10;;;2.30;;
77012;SDS011;67260;53.130;17.982;2023-07-24T08:51:11;4.00;;;2.40;;
77012;SDS011;67260;53.130;17.982;2023-07-24T08:53:56;4.60;;;2.20;;
77012;SDS011;67260;53.130;17.982;2023-07-24T08:56:36;3.70;;;1.90;;
77012;SDS011;67260;53.130;17.982;2023-07-24T08:59:08;4.70;;;2.10;;
77012;SDS011;67260;53.130;17.982;2023-07-24T09:01:34;5.00;;;1.90;;
77012;SDS011;67260;53.130;17.982;2023-07-24T09:04:05;4.40;;;2.20;;
77012;SDS011;67260;53.130;17.982;2023-07-24T09:06:31;4.60;;;2.30;;
77012;SDS011;67260;53.130;17.982;2023-07-24T09:08:57;5.90;;;2.30;;
77012;SDS011;67260;53.130;17.982;2023-07-24T09:11:23;4.80;;;2.30;;
77012;SDS011;67260;53.130;17.982;2023-07-24T09:13:50;3.20;;;2.10;;
77012;SDS011;67260;53.130;17.982;2023-07-24T09:16:28;4.40;;;2.10;;
77012;SDS011;67260;53.130;17.982;2023-07-24T09:19:00;4.80;;;2.00;;
77012;SDS011;67260;53.130;17.982;2023-07-24T09:21:29;4.10;;;2.00;;
77012;SDS011;67260;53.130;17.982;2023-07-24T09:23:56;3.70;;;2.10;;
77012;SDS011;67260;53.130;17.982;2023-07-24T09:26:54;4.70;;;2.30;;
77012;SDS011;67260;53.130;17.982;2023-07-24T09:29:31;3.90;;;2.40;;
77012;SDS011;67260;53.130;17.982;2023-07-24T09:32:01;4.00;;;2.10;;
77012;SDS011;67260;53.130;17.982;2023-07-24T09:34:31;4.80;;;2.50;;
77012;SDS011;67260;53.130;17.982;2023-07-24T09:36:58;3.80;;;2.10;;
77012;SDS011;67260;53.130;17.982;2023-07-24T09:39:28;4.00;;;2.50;;
77012;SDS011;67260;53.130;17.982;2023-07-24T09:42:05;5.60;;;2.30;;
77012;SDS011;67260;53.130;17.982;2023-07-24T09:44:32;4.10;;;2.20;;
77012;SDS011;67260;53.130;17.982;2023-07-24T09:46:59;3.80;;;2.20;;
77012;SDS011;67260;53.130;17.982;2023-07-24T09:49:27;5.30;;;1.90;;
77012;SDS011;67260;53.130;17.982;2023-07-24T09:51:57;5.40;;;2.10;;
77012;SDS011;67260;53.130;17.982;2023-07-24T09:54:29;4.30;;;2.10;;
77012;SDS011;67260;53.130;17.982;2023-07-24T09:57:10;4.00;;;2.00;;
77012;SDS011;67260;53.130;17.982;2023-07-24T09:59:39;3.70;;;2.10;;
77012;SDS011;67260;53.130;17.982;2023-07-24T10:02:10;3.60;;;1.80;;
77012;SDS011;67260;53.130;17.982;2023-07-24T10:04:41;3.20;;;1.90;;
77012;SDS011;67260;53.130;17.982;2023-07-24T10:07:13;5.40;;;2.20;;
77012;SDS011;67260;53.130;17.982;2023-07-24T10:09:39;4.60;;;2.10;;
77012;SDS011;67260;53.130;17.982;2023-07-24T10:12:07;6.30;;;2.20;;
77012;SDS011;67260;53.130;17.982;2023-07-24T10:14:37;4.50;;;2.00;;
77012;SDS011;67260;53.130;17.982;2023-07-24T10:17:08;4.40;;;2.50;;
77012;SDS011;67260;53.130;17.982;2023-07-24T10:19:41;4.50;;;2.30;;
77012;SDS011;67260;53.130;17.982;2023-07-24T10:22:10;5.80;;;2.20;;
77012;SDS011;67260;53.130;17.982;2023-07-24T10:24:47;3.50;;;2.10;;
77012;SDS011;67260;53.130;17.982;2023-07-24T10:27:24;3.60;;;2.30;;
77012;SDS011;67260;53.130;17.982;2023-07-24T10:29:59;6.00;;;2.30;;
77012;SDS011;67260;53.130;17.982;2023-07-24T10:32:26;5.20;;;2.20;;
77012;SDS011;67260;53.130;17.982;2023-07-24T10:35:00;5.20;;;2.30;;
77012;SDS011;67260;53.130;17.982;2023-07-24T10:37:38;4.40;;;2.00;;
77012;SDS011;67260;53.130;17.982;2023-07-24T10:40:04;3.20;;;1.90;;
77012;SDS011;67260;53.130;17.982;2023-07-24T10:42:31;4.70;;;2.10;;
77012;SDS011;67260;53.130;17.982;2023-07-24T10:45:04;4.80;;;2.20;;
77012;SDS011;67260;53.130;17.982;2023-07-24T10:47:38;6.40;;;2.30;;
77012;SDS011;67260;53.130;17.982;2023-07-24T10:50:07;5.40;;;2.40;;
77012;SDS011;67260;53.130;17.982;2023-07-24T10:52:34;4.70;;;2.10;;
77012;SDS011;67260;53.130;17.982;2023-07-24T10:55:03;4.10;;;2.10;;
77012;SDS011;67260;53.130;17.982;2023-07-24T10:57:32;4.50;;;2.20;;
77012;SDS011;67260;53.130;17.982;2023-07-24T10:59:59;4.80;;;2.30;;
77012;SDS011;67260;53.130;17.982;2023-07-24T11:02:29;5.10;;;1.90;;
77012;SDS011;67260;53.130;17.982;2023-07-24T11:04:59;5.20;;;2.10;;
77012;SDS011;67260;53.130;17.982;2023-07-24T11:07:31;3.30;;;2.00;;
77012;SDS011;67260;53.130;17.982;2023-07-24T11:10:01;4.70;;;2.00;;
77012;SDS011;67260;53.130;17.982;2023-07-24T11:12:39;3.50;;;2.00;;
77012;SDS011;67260;53.130;17.982;2023-07-24T11:15:06;4.40;;;2.10;;
77012;SDS011;67260;53.130;17.982;2023-07-24T11:17:41;4.10;;;2.10;;
77012;SDS011;67260;53.130;17.982;2023-07-24T11:20:17;4.00;;;2.10;;
77012;SDS011;67260;53.130;17.982;2023-07-24T11:22:57;4.60;;;2.10;;
77012;SDS011;67260;53.130;17.982;2023-07-24T11:25:24;3.10;;;1.80;;
77012;SDS011;67260;53.130;17.982;2023-07-24T11:27:54;4.60;;;2.00;;
77012;SDS011;67260;53.130;17.982;2023-07-24T11:30:20;5.30;;;2.20;;
77012;SDS011;67260;53.130;17.982;2023-07-24T11:32:55;15.70;;;3.10;;
77012;SDS011;67260;53.130;17.982;2023-07-24T11:35:25;5.60;;;2.20;;
77012;SDS011;67260;53.130;17.982;2023-07-24T11:37:54;3.60;;;2.20;;
77012;SDS011;67260;53.130;17.982;2023-07-24T11:40:30;3.10;;;1.60;;
77012;SDS011;67260;53.130;17.982;2023-07-24T11:43:14;5.30;;;1.90;;
77012;SDS011;67260;53.130;17.982;2023-07-24T11:45:49;3.50;;;1.80;;
77012;SDS011;67260;53.130;17.982;2023-07-24T11:48:33;4.10;;;2.10;;
77012;SDS011;67260;53.130;17.982;2023-07-24T11:51:07;4.10;;;1.90;;
77012;SDS011;67260;53.130;17.982;2023-07-24T11:53:45;4.30;;;1.90;;
77012;SDS011;67260;53.130;17.982;2023-07-24T11:56:19;4.80;;;2.10;;
77012;SDS011;67260;53.130;17.982;2023-07-24T11:58:45;5.00;;;1.90;;
77012;SDS011;67260;53.130;17.982;2023-07-24T12:01:13;3.70;;;2.10;;
77012;SDS011;67260;53.130;17.982;2023-07-24T12:03:39;4.40;;;1.70;;
77012;SDS011;67260;53.130;17.982;2023-07-24T12:06:15;3.90;;;1.90;;
77012;SDS011;67260;53.130;17.982;2023-07-24T12:08:49;4.40;;;1.80;;
77012;SDS011;67260;53.130;17.982;2023-07-24T12:11:16;4.40;;;1.70;;
77012;SDS011;67260;53.130;17.982;2023-07-24T12:13:45;3.40;;;2.10;;
77012;SDS011;67260;53.130;17.982;2023-07-24T12:16:18;4.70;;;1.90;;
77012;SDS011;67260;53.130;17.982;2023-07-24T12:18:54;4.40;;;2.30;;
77012;SDS011;67260;53.130;17.982;2023-07-24T12:21:26;4.00;;;1.70;;
77012;SDS011;67260;53.130;17.982;2023-07-24T12:23:53;3.80;;;1.80;;
77012;SDS011;67260;53.130;17.982;2023-07-24T12:26:19;3.50;;;2.00;;
77012;SDS011;67260;53.130;17.982;2023-07-24T12:28:49;5.30;;;2.90;;
77012;SDS011;67260;53.130;17.982;2023-07-24T12:31:15;3.60;;;1.90;;
77012;SDS011;67260;53.130;17.982;2023-07-24T12:33:45;3.50;;;2.00;;
77012;SDS011;67260;53.130;17.982;2023-07-24T12:36:11;4.00;;;2.00;;
77012;SDS011;67260;53.130;17.982;2023-07-24T12:38:46;4.80;;;1.80;;
77012;SDS011;67260;53.130;17.982;2023-07-24T12:41:15;3.90;;;1.70;;
77012;SDS011;67260;53.130;17.982;2023-07-24T12:43:44;3.80;;;1.70;;
77012;SDS011;67260;53.130;17.982;2023-07-24T12:46:10;4.40;;;2.00;;
77012;SDS011;67260;53.130;17.982;2023-07-24T12:48:42;4.60;;;1.70;;
77012;SDS011;67260;53.130;17.982;2023-07-24T12:51:09;5.40;;;1.90;;
77012;SDS011;67260;53.130;17.982;2023-07-24T12:53:43;4.30;;;1.90;;
77012;SDS011;67260;53.130;17.982;2023-07-24T12:56:09;5.00;;;2.00;;
77012;SDS011;67260;53.130;17.982;2023-07-24T12:58:35;3.90;;;1.80;;
77012;SDS011;67260;53.130;17.982;2023-07-24T13:01:01;4.40;;;2.00;;
77012;SDS011;67260;53.130;17.982;2023-07-24T13:03:27;3.90;;;1.90;;
77012;SDS011;67260;53.130;17.982;2023-07-24T13:05:53;2.80;;;1.80;;
77012;SDS011;67260;53.130;17.982;2023-07-24T13:08:21;3.00;;;1.80;;
77012;SDS011;67260;53.130;17.982;2023-07-24T13:10:48;4.00;;;2.40;;
77012;SDS011;67260;53.130;17.982;2023-07-24T13:13:14;4.30;;;1.80;;
77012;SDS011;67260;53.130;17.982;2023-07-24T13:15:40;4.80;;;2.00;;
77012;SDS011;67260;53.130;17.982;2023-07-24T13:18:06;6.00;;;2.00;;
77012;SDS011;67260;53.130;17.982;2023-07-24T13:20:32;3.20;;;2.00;;
77012;SDS011;67260;53.130;17.982;2023-07-24T13:23:11;4.20;;;1.90;;
77012;SDS011;67260;53.130;17.982;2023-07-24T13:25:38;4.30;;;2.00;;
77012;SDS011;67260;53.130;17.982;2023-07-24T13:28:04;3.10;;;1.80;;
77012;SDS011;67260;53.130;17.982;2023-07-24T13:30:30;3.60;;;2.10;;
77012;SDS011;67260;53.130;17.982;2023-07-24T13:32:59;5.20;;;2.10;;
77012;SDS011;67260;53.130;17.982;2023-07-24T13:35:25;5.10;;;3.00;;
77012;SDS011;67260;53.130;17.982;2023-07-24T13:37:51;4.00;;;2.10;;
77012;SDS011;67260;53.130;17.982;2023-07-24T13:40:19;4.80;;;2.40;;
77012;SDS011;67260;53.130;17.982;2023-07-24T13:42:54;4.30;;;2.30;;
77012;SDS011;67260;53.130;17.982;2023-07-24T13:45:24;4.00;;;1.90;;
77012;SDS011;67260;53.130;17.982;2023-07-24T13:50:25;4.80;;;2.20;;
77012;SDS011;67260;53.130;17.982;2023-07-24T13:52:55;6.20;;;2.50;;
77012;SDS011;67260;53.130;17.982;2023-07-24T13:55:31;4.80;;;2.70;;
77012;SDS011;67260;53.130;17.982;2023-07-24T13:58:10;4.90;;;2.80;;
77012;SDS011;67260;53.130;17.982;2023-07-24T14:00:57;4.00;;;2.20;;
77012;SDS011;67260;53.130;17.982;2023-07-24T14:03:26;3.70;;;2.40;;
77012;SDS011;67260;53.130;17.982;2023-07-24T14:06:02;7.30;;;2.60;;
77012;SDS011;67260;53.130;17.982;2023-07-24T14:08:38;5.00;;;2.30;;
77012;SDS011;67260;53.130;17.982;2023-07-24T14:11:04;4.80;;;2.40;;
77012;SDS011;67260;53.130;17.982;2023-07-24T14:13:30;5.50;;;2.30;;
77012;SDS011;67260;53.130;17.982;2023-07-24T14:15:56;5.10;;;2.50;;
77012;SDS011;67260;53.130;17.982;2023-07-24T14:18:22;4.40;;;2.30;;
77012;SDS011;67260;53.130;17.982;2023-07-24T14:20:49;5.70;;;2.70;;
77012;SDS011;67260;53.130;17.982;2023-07-24T14:23:25;5.30;;;2.80;;
77012;SDS011;67260;53.130;17.982;2023-07-24T14:25:52;7.30;;;3.20;;
77012;SDS011;67260;53.130;17.982;2023-07-24T14:28:27;7.60;;;4.00;;
77012;SDS011;67260;53.130;17.982;2023-07-24T14:31:07;4.90;;;2.80;;
77012;SDS011;67260;53.130;17.982;2023-07-24T14:33:39;4.60;;;2.60;;
77012;SDS011;67260;53.130;17.982;2023-07-24T14:36:11;6.40;;;2.90;;
77012;SDS011;67260;53.130;17.982;2023-07-24T14:38:48;4.70;;;2.70;;
77012;SDS011;67260;53.130;17.982;2023-07-24T14:41:25;5.50;;;3.20;;
77012;SDS011;67260;53.130;17.982;2023-07-24T14:43:55;4.70;;;2.60;;
77012;SDS011;67260;53.130;17.982;2023-07-24T14:46:32;4.30;;;2.80;;
77012;SDS011;67260;53.130;17.982;2023-07-24T14:49:11;4.80;;;2.80;;
77012;SDS011;67260;53.130;17.982;2023-07-24T14:51:37;6.00;;;3.20;;
77012;SDS011;67260;53.130;17.982;2023-07-24T14:54:04;6.10;;;4.10;;
77012;SDS011;67260;53.130;17.982;2023-07-24T14:56:30;7.30;;;3.30;;
77012;SDS011;67260;53.130;17.982;2023-07-24T14:59:06;6.20;;;3.10;;
77012;SDS011;67260;53.130;17.982;2023-07-24T15:01:33;5.60;;;3.00;;
77012;SDS011;67260;53.130;17.982;2023-07-24T15:03:59;5.80;;;3.10;;
77012;SDS011;67260;53.130;17.982;2023-07-24T15:06:25;5.60;;;3.40;;
77012;SDS011;67260;53.130;17.982;2023-07-24T15:08:51;5.10;;;3.60;;
77012;SDS011;67260;53.130;17.982;2023-07-24T15:11:25;6.80;;;4.10;;
77012;SDS011;67260;53.130;17.982;2023-07-24T15:13:51;7.30;;;4.10;;